Time;durP1;ratioP1;P1;durP2;ratioP2;P2;SDS_P1;SDS_P2;PMS_P1;PMS_P2;Temp;Humidity;BMP_temperature;BMP_pressure;BME280_temperature;BME280_humidity;BME280_pressure;Samples;Min_cycle;Max_cycle;Signal;HPM_P1;HPM_P2
2021/12/02 00:01:21;;;;;;;1.83;1.50;;;;;;;3.68;97.05;98318.19;5072179;28;20202;-77
2021/12/02 00:03:47;;;;;;;0.10;0.00;;;;;;;3.73;95.41;98324.19;5072025;28;20189;-76
2021/12/02 00:06:16;;;;;;;1.23;0.20;;;;;;;3.79;94.56;98324.84;5071730;28;20634;-77
2021/12/02 00:08:42;;;;;;;0.10;0.10;;;;;;;3.81;94.26;98320.72;5071778;28;20194;-77
2021/12/02 00:11:08;;;;;;;0.27;0.23;;;;;;;3.83;94.40;98326.59;5071804;28;20171;-76
2021/12/02 00:21:23;;;;;;;0.00;0.00;;;;;;;3.81;95.00;98333.44;5071735;28;20622;-77
2021/12/02 00:24:08;;;;;;;0.07;0.07;;;;;;;3.77;95.51;98348.69;5071588;28;20541;-76
2021/12/02 00:26:36;;;;;;;1.50;0.10;;;;;;;3.79;94.63;98346.47;5071479;28;20649;-76
2021/12/02 00:29:05;;;;;;;0.47;0.47;;;;;;;3.82;94.33;98349.31;5071549;28;20220;-76
2021/12/02 00:31:33;;;;;;;0.10;0.00;;;;;;;3.83;94.57;98350.91;5071554;28;20178;-76
2021/12/02 00:34:02;;;;;;;0.43;0.10;;;;;;;3.86;94.21;98349.47;5071293;28;20178;-77
2021/12/02 00:36:31;;;;;;;0.00;0.00;;;;;;;3.84;95.08;98362.50;5071050;28;20206;-77
2021/12/02 00:38:57;;;;;;;0.93;0.67;;;;;;;3.83;95.06;98369.81;5071313;28;20179;-77
2021/12/02 00:41:26;;;;;;;0.30;0.00;;;;;;;3.83;95.08;98353.59;5069982;28;20538;-76
2021/12/02 00:43:53;;;;;;;5.63;1.63;;;;;;;3.82;95.29;98372.81;5071228;28;20626;-77
2021/12/02 00:46:21;;;;;;;0.63;0.23;;;;;;;3.79;95.55;98371.56;5070702;28;20180;-77
2021/12/02 00:48:47;;;;;;;0.27;0.27;;;;;;;3.78;95.07;98331.38;5071144;28;20339;-77
2021/12/02 00:51:14;;;;;;;1.13;0.67;;;;;;;3.79;95.28;98395.88;5071179;28;20688;-76
2021/12/02 00:53:43;;;;;;;0.23;0.10;;;;;;;3.79;95.84;98395.06;5071315;28;20182;-77
2021/12/02 00:56:10;;;;;;;4.70;0.53;;;;;;;3.80;95.41;98397.44;5070824;28;20202;-76
2021/12/02 00:58:36;;;;;;;10.07;0.83;;;;;;;3.83;94.89;98404.91;5071378;28;20582;-77
2021/12/02 01:01:02;;;;;;;0.50;0.50;;;;;;;3.89;93.55;98394.72;5069416;28;20198;-77
2021/12/02 01:03:35;;;;;;;1.73;0.40;;;;;;;3.91;92.94;98416.06;5070641;28;20228;-76
2021/12/02 01:06:04;;;;;;;0.20;0.10;;;;;;;3.92;91.63;98417.63;5070707;28;20183;-76
2021/12/02 01:08:30;;;;;;;0.00;0.00;;;;;;;3.92;91.62;98420.34;5070814;28;20190;-76
2021/12/02 01:10:56;;;;;;;0.67;0.50;;;;;;;3.88;92.33;98422.84;5070922;28;20178;-76
2021/12/02 01:13:21;;;;;;;3.40;0.93;;;;;;;3.83;92.40;98426.53;5070819;28;20576;-76
2021/12/02 01:15:47;;;;;;;0.30;0.20;;;;;;;3.83;91.89;98458.13;5070728;28;20657;-76
2021/12/02 01:18:12;;;;;;;1.27;0.63;;;;;;;3.84;91.59;98448.91;5070833;28;20261;-77
2021/12/02 01:20:39;;;;;;;0.83;0.73;;;;;;;3.82;92.58;98435.72;5070762;28;20520;-76
2021/12/02 01:23:06;;;;;;;0.10;0.10;;;;;;;3.75;95.04;98443.50;5070814;28;20189;-76
2021/12/02 01:25:32;;;;;;;0.07;0.03;;;;;;;3.70;95.91;98438.25;5070620;28;20178;-77
2021/12/02 01:27:59;;;;;;;0.37;0.37;;;;;;;3.70;95.48;98451.75;5070611;28;20220;-76
2021/12/02 01:30:27;;;;;;;0.77;0.13;;;;;;;3.68;96.05;98442.38;5070676;28;20606;-77
2021/12/02 01:33:01;;;;;;;0.37;0.37;;;;;;;3.68;96.67;98458.59;5070679;28;20576;-76
2021/12/02 01:35:28;;;;;;;0.00;0.00;;;;;;;3.55;97.86;98474.59;5070491;28;20172;-76
2021/12/02 01:37:54;;;;;;;0.20;0.20;;;;;;;3.52;99.61;98450.94;5070579;28;20970;-77
2021/12/02 01:40:19;;;;;;;0.10;0.10;;;;;;;3.48;100.00;98449.97;5070592;28;20185;-77
2021/12/02 01:42:48;;;;;;;2.97;1.23;;;;;;;3.46;100.00;98457.56;5070421;28;20179;-77
2021/12/02 01:45:21;;;;;;;20.93;1.40;;;;;;;3.50;100.00;98447.75;5070499;28;20171;-77
2021/12/02 01:47:51;;;;;;;0.53;0.17;;;;;;;3.43;100.00;98452.00;5070321;28;20270;-77
2021/12/02 01:50:20;;;;;;;2.43;1.27;;;;;;;3.35;100.00;98448.19;5070827;28;20162;-77
2021/12/02 01:52:49;;;;;;;0.67;0.60;;;;;;;3.34;100.00;98459.31;5070435;28;20175;-76
2021/12/02 01:55:16;;;;;;;0.10;0.10;;;;;;;3.35;100.00;98447.41;5070204;28;20175;-77
2021/12/02 01:57:59;;;;;;;29.00;1.23;;;;;;;3.40;100.00;98453.44;5070419;28;20210;-76
2021/12/02 02:00:41;;;;;;;1.63;0.83;;;;;;;3.45;100.00;98449.78;5070473;28;20166;-77
2021/12/02 02:03:09;;;;;;;0.10;0.10;;;;;;;3.48;100.00;98443.78;5070423;28;20508;-76
2021/12/02 02:05:35;;;;;;;0.40;0.40;;;;;;;3.48;100.00;98459.97;5070195;28;20174;-77
2021/12/02 02:08:14;;;;;;;9.23;0.77;;;;;;;3.53;98.56;98463.31;5070304;28;20190;-77
2021/12/02 02:10:43;;;;;;;0.27;0.20;;;;;;;3.51;98.49;98462.03;5070699;28;20170;-77
2021/12/02 02:13:10;;;;;;;0.00;0.00;;;;;;;3.49;98.65;98467.75;5070296;28;20179;-75
2021/12/02 02:15:47;;;;;;;0.00;0.00;;;;;;;3.46;98.72;98473.75;5071415;28;20171;-77
2021/12/02 02:18:18;;;;;;;7.50;0.67;;;;;;;3.43;97.95;98465.50;5074010;28;20255;-76
2021/12/02 02:20:58;;;;;;;0.00;0.00;;;;;;;3.45;96.55;98471.38;5074008;28;20173;-77
2021/12/02 02:23:25;;;;;;;0.57;0.57;;;;;;;3.38;97.07;98476.44;5073927;28;20213;-76
2021/12/02 02:25:50;;;;;;;0.53;0.20;;;;;;;3.41;95.63;98470.41;5073633;28;20181;-77
2021/12/02 02:28:16;;;;;;;0.00;0.00;;;;;;;3.34;96.07;98470.88;5074071;28;20447;-77
2021/12/02 02:30:42;;;;;;;0.67;0.67;;;;;;;3.31;96.56;98470.69;5073751;28;20175;-75
2021/12/02 02:33:10;;;;;;;1.60;0.80;;;;;;;3.29;96.25;98479.09;5073735;28;20167;-76
2021/12/02 02:35:35;;;;;;;0.17;0.17;;;;;;;3.28;96.26;98489.09;5073394;28;20305;-77
2021/12/02 02:38:01;;;;;;;0.60;0.53;;;;;;;3.29;95.52;98465.63;5073638;28;20672;-77
2021/12/02 02:40:26;;;;;;;5.53;0.47;;;;;;;3.41;92.09;98492.00;5073251;28;20186;-76
2021/12/02 02:42:58;;;;;;;3.40;1.07;;;;;;;3.41;92.36;98490.09;5073646;28;20550;-76
2021/12/02 02:45:24;;;;;;;17.23;0.43;;;;;;;3.32;93.76;98477.69;5073374;28;20186;-77
2021/12/02 02:47:49;;;;;;;1.50;0.37;;;;;;;3.28;93.15;98491.81;5073329;28;20179;-77
2021/12/02 02:50:15;;;;;;;2.23;0.77;;;;;;;3.20;94.44;98489.88;5073656;28;20711;-76
2021/12/02 02:52:42;;;;;;;0.70;0.70;;;;;;;3.13;95.99;98489.50;5073327;28;20175;-76
2021/12/02 02:55:09;;;;;;;3.20;0.97;;;;;;;3.05;96.89;98492.97;5073094;28;20268;-76
2021/12/02 02:58:45;;;;;;;0.30;0.10;;;;;;;3.00;97.40;98493.09;5073440;28;20198;-76
2021/12/02 03:00:44;;;;;;;0.00;0.00;;;;;;;2.98;97.26;98492.63;5063844;28;20224;-76
2021/12/02 03:03:33;;;;;;;0.40;0.40;;;;;;;3.04;96.02;98504.06;5073009;28;20171;-76
2021/12/02 03:08:48;;;;;;;0.30;0.30;;;;;;;3.12;94.60;98497.91;5073131;28;20194;-77
2021/12/02 03:11:16;;;;;;;0.37;0.37;;;;;;;3.12;94.49;98506.81;5072873;28;20173;-76
2021/12/02 03:13:51;;;;;;;0.10;0.10;;;;;;;3.14;94.01;98503.81;5073062;28;20174;-78
2021/12/02 03:19:28;;;;;;;0.60;0.60;;;;;;;3.24;91.19;98525.13;5010501;28;20189;-76
2021/12/02 03:21:55;;;;;;;1.80;0.43;;;;;;;3.19;91.90;98514.47;5010462;28;20177;-76
2021/12/02 03:24:21;;;;;;;0.00;0.00;;;;;;;3.19;92.42;98523.38;5041753;28;20197;-77
2021/12/02 03:26:48;;;;;;;0.10;0.10;;;;;;;3.20;92.86;98535.75;5071929;28;20193;-76
2021/12/02 03:29:13;;;;;;;1.47;0.40;;;;;;;3.14;94.38;98542.38;5072922;28;20629;-76
2021/12/02 03:31:39;;;;;;;0.33;0.33;;;;;;;3.11;94.23;98551.09;5072654;28;20202;-76
2021/12/02 03:34:06;;;;;;;16.77;0.93;;;;;;;3.05;95.50;98544.25;5071062;28;20178;-76
2021/12/02 03:36:32;;;;;;;5.13;0.83;;;;;;;3.00;96.03;98549.75;5072213;28;20213;-77
2021/12/02 03:38:58;;;;;;;4.13;0.70;;;;;;;2.99;95.93;98540.84;5072537;28;20178;-77
2021/12/02 03:41:24;;;;;;;5.33;1.00;;;;;;;2.95;96.10;98542.59;5072514;28;20634;-77
2021/12/02 03:43:50;;;;;;;1.93;1.17;;;;;;;2.90;97.03;98531.94;5072432;28;20696;-75
2021/12/02 03:46:18;;;;;;;0.30;0.30;;;;;;;2.88;97.38;98536.81;5071830;28;20684;-77
2021/12/02 03:48:44;;;;;;;1.07;1.03;;;;;;;2.86;97.29;98528.22;5070745;28;20543;-76
2021/12/02 03:51:11;;;;;;;0.43;0.10;;;;;;;2.83;97.37;98504.59;5072298;28;20185;-77
2021/12/02 03:53:36;;;;;;;5.00;0.50;;;;;;;2.81;98.54;98549.94;5072207;28;20220;-76
2021/12/02 03:56:06;;;;;;;9.33;1.70;;;;;;;2.77;98.98;98553.56;5072271;28;20615;-77
2021/12/02 03:58:32;;;;;;;4.50;0.37;;;;;;;2.71;99.52;98544.78;5070937;28;20269;-78
2021/12/02 04:00:58;;;;;;;0.10;0.10;;;;;;;2.68;98.96;98545.41;5071927;28;20225;-76
2021/12/02 04:03:23;;;;;;;0.23;0.23;;;;;;;2.69;97.84;98544.28;5071878;28;20650;-77
2021/12/02 04:05:49;;;;;;;0.83;0.10;;;;;;;2.64;97.86;98523.66;5071927;28;20688;-76
2021/12/02 04:08:14;;;;;;;0.00;0.00;;;;;;;2.61;97.66;98555.84;5071875;28;20186;-76
2021/12/02 04:10:42;;;;;;;0.53;0.03;;;;;;;2.59;96.99;98548.03;5071848;28;20179;-77
2021/12/02 04:15:49;;;;;;;0.00;0.00;;;;;;;2.58;96.53;98549.13;5071493;28;20912;-76
2021/12/02 04:18:14;;;;;;;0.00;0.00;;;;;;;2.52;96.88;98544.97;5071960;28;20277;-76
2021/12/02 04:20:40;;;;;;;0.00;0.00;;;;;;;2.54;95.94;98534.69;5071658;28;20183;-76
2021/12/02 04:23:05;;;;;;;0.73;0.73;;;;;;;2.53;96.13;98549.25;5071600;28;20219;-77
2021/12/02 04:25:30;;;;;;;0.00;0.00;;;;;;;2.51;96.75;98542.59;5071331;28;20178;-77
2021/12/02 04:27:56;;;;;;;0.20;0.10;;;;;;;2.50;96.44;98555.25;5071551;28;20190;-77
2021/12/02 04:30:25;;;;;;;0.67;0.27;;;;;;;2.49;96.90;98550.97;5071748;28;20170;-76
2021/12/02 04:32:51;;;;;;;0.00;0.00;;;;;;;2.48;97.39;98562.06;5071280;28;20166;-77
2021/12/02 04:35:17;;;;;;;0.33;0.10;;;;;;;2.50;97.46;98567.94;5071235;28;20308;-76
2021/12/02 04:37:44;;;;;;;0.00;0.00;;;;;;;2.51;97.21;98567.63;5071233;28;20227;-76
2021/12/02 04:40:11;;;;;;;0.57;0.10;;;;;;;2.50;97.75;98557.16;5070179;28;20170;-77
2021/12/02 04:42:37;;;;;;;5.00;0.57;;;;;;;2.49;97.32;98558.25;5071027;28;20183;-76
2021/12/02 04:45:04;;;;;;;0.40;0.30;;;;;;;2.48;97.52;98552.06;5071052;28;20176;-74
2021/12/02 04:47:29;;;;;;;15.57;0.53;;;;;;;2.46;98.15;98565.06;5070853;28;20182;-76
2021/12/02 04:49:54;;;;;;;0.00;0.00;;;;;;;2.45;98.31;98568.03;5071480;28;20488;-77
2021/12/02 04:52:20;;;;;;;1.60;1.37;;;;;;;2.44;98.66;98569.94;5071051;28;20201;-75
2021/12/02 04:54:45;;;;;;;0.77;0.43;;;;;;;2.45;98.94;98570.72;5070885;28;20180;-76
2021/12/02 04:57:10;;;;;;;0.00;0.00;;;;;;;2.44;98.56;98582.63;5071235;28;20233;-76
2021/12/02 04:59:36;;;;;;;0.20;0.10;;;;;;;2.43;98.99;98581.81;5071044;28;20187;-77
2021/12/02 05:02:01;;;;;;;0.20;0.20;;;;;;;2.37;100.00;98578.44;5070953;28;20174;-77
2021/12/02 05:04:27;;;;;;;0.10;0.10;;;;;;;2.32;100.00;98575.88;5069445;28;20182;-76
2021/12/02 05:06:52;;;;;;;0.10;0.10;;;;;;;2.28;100.00;98582.94;5070815;28;20525;-76
2021/12/02 05:09:18;;;;;;;0.10;0.10;;;;;;;2.23;100.00;98591.16;5070849;28;20218;-76
2021/12/02 05:11:43;;;;;;;1.57;0.20;;;;;;;2.21;100.00;98584.47;5070809;28;20629;-76
2021/12/02 05:14:09;;;;;;;1.00;0.67;;;;;;;2.21;100.00;98601.44;5070879;28;20162;-77
2021/12/02 05:16:39;;;;;;;0.10;0.10;;;;;;;2.19;100.00;98603.63;5070399;28;20624;-76
2021/12/02 05:19:04;;;;;;;0.50;0.33;;;;;;;2.20;100.00;98588.28;5071375;28;20182;-77
2021/12/02 05:21:30;;;;;;;0.07;0.03;;;;;;;2.17;100.00;98603.16;5070598;28;20443;-78
2021/12/02 05:23:55;;;;;;;0.27;0.27;;;;;;;2.21;100.00;98593.34;5070605;28;20174;-78
2021/12/02 05:26:22;;;;;;;3.73;0.47;;;;;;;2.18;100.00;98596.66;5070374;28;20559;-76
2021/12/02 05:28:47;;;;;;;0.13;0.13;;;;;;;2.19;100.00;98589.38;5070401;28;20179;-76
2021/12/02 05:31:13;;;;;;;0.30;0.10;;;;;;;2.15;100.00;98585.66;5070459;28;20171;-77
2021/12/02 05:33:39;;;;;;;0.47;0.47;;;;;;;2.10;100.00;98591.97;5070557;28;20175;-76
2021/12/02 05:36:04;;;;;;;3.10;0.30;;;;;;;2.10;100.00;98594.66;5070218;28;20279;-76
2021/12/02 05:38:30;;;;;;;15.30;0.67;;;;;;;2.13;100.00;98601.34;5070539;28;20174;-75
2021/12/02 05:40:55;;;;;;;0.40;0.40;;;;;;;2.12;100.00;98597.84;5070466;28;20257;-77
2021/12/02 05:43:20;;;;;;;1.60;0.40;;;;;;;2.12;100.00;98597.03;5070621;28;20166;-77
2021/12/02 05:45:46;;;;;;;0.73;0.73;;;;;;;2.11;100.00;98603.53;5070271;28;20728;-75
2021/12/02 05:48:11;;;;;;;0.23;0.23;;;;;;;2.11;100.00;98604.34;5069930;28;20204;-76
2021/12/02 05:50:37;;;;;;;0.20;0.20;;;;;;;2.07;100.00;98601.44;5072186;28;20178;-76
2021/12/02 05:53:02;;;;;;;1.10;0.40;;;;;;;2.05;100.00;98608.25;5074391;28;20182;-75
2021/12/02 05:55:28;;;;;;;0.00;0.00;;;;;;;2.08;100.00;98621.09;5074090;28;20253;-77
2021/12/02 05:57:53;;;;;;;0.27;0.27;;;;;;;2.07;100.00;98630.28;5074791;28;20189;-76
2021/12/02 06:00:19;;;;;;;0.00;0.00;;;;;;;2.11;100.00;98636.66;5074266;28;20257;-76
2021/12/02 06:02:45;;;;;;;6.27;1.10;;;;;;;2.13;100.00;98623.69;5074115;28;20531;-77
2021/12/02 06:05:15;;;;;;;0.23;0.23;;;;;;;2.11;100.00;98631.28;5074488;28;20181;-77
2021/12/02 06:07:41;;;;;;;2.63;1.50;;;;;;;2.12;100.00;98634.75;5074284;28;20204;-76
2021/12/02 06:10:06;;;;;;;0.00;0.00;;;;;;;2.12;100.00;98638.25;5074121;28;20194;-77
2021/12/02 06:12:32;;;;;;;0.67;0.27;;;;;;;2.13;100.00;98639.84;5073981;28;20253;-76
2021/12/02 06:14:57;;;;;;;0.40;0.40;;;;;;;2.15;100.00;98647.63;5073785;28;20181;-75
2021/12/02 06:17:23;;;;;;;0.00;0.00;;;;;;;2.16;100.00;98647.31;5074243;28;20247;-77
2021/12/02 06:19:48;;;;;;;0.10;0.10;;;;;;;2.17;100.00;98661.59;5073894;28;20598;-77
2021/12/02 06:22:14;;;;;;;0.17;0.17;;;;;;;2.18;100.00;98655.13;5073813;28;20174;-77
2021/12/02 06:25:05;;;;;;;0.50;0.50;;;;;;;2.17;100.00;98661.59;5073823;28;20175;-76
2021/12/02 06:27:31;;;;;;;0.83;0.60;;;;;;;2.19;100.00;98667.50;5073776;28;20162;-77
2021/12/02 06:29:56;;;;;;;0.93;0.33;;;;;;;2.19;100.00;98668.28;5073761;28;20182;-74
2021/12/02 06:32:21;;;;;;;0.43;0.43;;;;;;;2.21;100.00;98668.00;5073843;28;20179;-76
2021/12/02 06:34:46;;;;;;;0.00;0.00;;;;;;;2.21;100.00;98665.28;5073283;28;20566;-75
2021/12/02 06:37:12;;;;;;;0.60;0.60;;;;;;;2.20;100.00;98669.88;5073876;28;20223;-77
2021/12/02 06:39:37;;;;;;;0.70;0.30;;;;;;;2.21;100.00;98665.28;5079410;28;20205;-76
2021/12/02 06:42:03;;;;;;;0.87;0.50;;;;;;;2.23;100.00;98661.19;5079318;28;20175;-77
2021/12/02 06:44:28;;;;;;;0.90;0.90;;;;;;;2.23;100.00;98680.06;5074399;28;20253;-76
2021/12/02 06:46:55;;;;;;;0.17;0.17;;;;;;;2.24;100.00;98672.78;5073306;28;20175;-77
2021/12/02 06:49:21;;;;;;;0.27;0.27;;;;;;;2.25;100.00;98687.84;5072352;28;20171;-77
2021/12/02 06:51:46;;;;;;;2.10;0.60;;;;;;;2.25;100.00;98688.63;5073922;28;20185;-76
2021/12/02 06:54:11;;;;;;;0.30;0.30;;;;;;;2.27;100.00;98680.25;5073119;28;20220;-76
2021/12/02 06:56:37;;;;;;;0.30;0.20;;;;;;;2.25;100.00;98675.16;5073594;28;20210;-77
2021/12/02 06:59:02;;;;;;;4.33;0.50;;;;;;;2.24;100.00;98678.97;5073216;28;20186;-76
2021/12/02 07:01:27;;;;;;;0.40;0.23;;;;;;;2.24;100.00;98694.31;5072324;28;20181;-75
2021/12/02 07:03:53;;;;;;;0.27;0.27;;;;;;;2.24;100.00;98695.13;5072747;28;20174;-77
2021/12/02 07:06:18;;;;;;;0.10;0.10;;;;;;;2.23;100.00;98700.81;5072821;28;20182;-77
2021/12/02 07:08:43;;;;;;;0.13;0.13;;;;;;;2.22;100.00;98702.72;5072875;28;20260;-78
2021/12/02 07:11:10;;;;;;;1.17;1.07;;;;;;;2.22;100.00;98704.59;5072977;28;20638;-76
2021/12/02 07:13:37;;;;;;;0.53;0.40;;;;;;;2.22;100.00;98704.59;5072674;28;20719;-78
2021/12/02 07:16:03;;;;;;;0.00;0.00;;;;;;;2.21;100.00;98706.50;5067249;28;20483;-77
2021/12/02 07:18:28;;;;;;;0.67;0.67;;;;;;;2.19;100.00;98714.09;5072531;28;20641;-78
2021/12/02 07:20:54;;;;;;;0.43;0.43;;;;;;;2.20;100.00;98712.19;5072716;28;20673;-78
2021/12/02 07:23:21;;;;;;;0.27;0.27;;;;;;;2.19;100.00;98716.78;5072787;28;20622;-78
2021/12/02 07:25:47;;;;;;;4.00;0.70;;;;;;;2.19;100.00;98732.16;5072539;28;20307;-78
2021/12/02 07:28:15;;;;;;;0.93;0.93;;;;;;;2.21;100.00;98732.63;5072642;28;20186;-76
2021/12/02 07:30:41;;;;;;;0.50;0.50;;;;;;;2.20;100.00;98739.13;5072825;28;20232;-77
2021/12/02 07:33:10;;;;;;;0.53;0.47;;;;;;;2.21;100.00;98749.59;5072693;28;20223;-78
2021/12/02 07:35:36;;;;;;;2.87;0.97;;;;;;;2.27;100.00;98753.00;5072266;28;20668;-76
2021/12/02 07:38:04;;;;;;;1.87;1.27;;;;;;;2.28;100.00;98766.16;5072435;28;20642;-76
2021/12/02 07:40:36;;;;;;;1.10;1.00;;;;;;;2.36;100.00;98770.88;5072343;28;20183;-78
2021/12/02 07:43:03;;;;;;;1.07;0.97;;;;;;;2.42;100.00;98776.16;5072446;28;20167;-77
2021/12/02 07:45:36;;;;;;;1.20;0.80;;;;;;;2.46;100.00;98787.94;5072223;28;20665;-76
2021/12/02 07:48:06;;;;;;;9.40;1.77;;;;;;;2.46;100.00;98790.63;5072060;28;20178;-77
2021/12/02 07:50:34;;;;;;;3.00;1.43;;;;;;;2.55;100.00;98799.63;5072186;28;20175;-76
2021/12/02 07:53:03;;;;;;;1.40;1.30;;;;;;;2.61;100.00;98809.22;5072179;28;20194;-77
2021/12/02 07:55:30;;;;;;;7.63;1.40;;;;;;;2.73;100.00;98812.19;5072018;28;20543;-77
2021/12/02 07:57:56;;;;;;;2.57;1.00;;;;;;;2.76;100.00;98814.31;5072082;28;20234;-79
2021/12/02 08:00:25;;;;;;;3.93;0.70;;;;;;;2.80;100.00;98820.69;5072104;28;20637;-77
2021/12/02 08:02:52;;;;;;;3.30;0.93;;;;;;;2.55;100.00;98826.56;5071969;28;20182;-76
2021/12/02 08:05:21;;;;;;;1.30;0.87;;;;;;;2.52;100.00;98825.28;5071368;28;20188;-78
2021/12/02 08:07:46;;;;;;;1.60;0.97;;;;;;;2.61;100.00;98834.28;5071874;28;20177;-79
2021/12/02 08:10:14;;;;;;;3.07;1.17;;;;;;;2.64;100.00;98835.59;5071742;28;20178;-82
2021/12/02 08:12:46;;;;;;;1.40;0.60;;;;;;;2.71;100.00;98840.56;5071664;28;20197;-87
2021/12/02 08:15:15;;;;;;;0.83;0.63;;;;;;;2.71;100.00;98845.97;5071352;28;20625;-79
2021/12/02 08:17:40;;;;;;;9.73;4.73;;;;;;;2.65;100.00;98842.56;5071066;28;20198;-79
2021/12/02 08:20:06;;;;;;;1.97;1.77;;;;;;;2.21;100.00;98840.41;5071246;28;20178;-77
2021/12/02 08:22:32;;;;;;;1.33;0.73;;;;;;;1.92;100.00;98846.00;5071236;28;20190;-77
2021/12/02 08:24:58;;;;;;;2.13;1.00;;;;;;;1.77;100.00;98845.16;5071354;28;20189;-78
2021/12/02 08:27:24;;;;;;;1.10;0.77;;;;;;;1.89;100.00;98857.38;5070261;28;20174;-78
2021/12/02 08:29:49;;;;;;;2.10;0.70;;;;;;;1.93;100.00;98861.06;5071537;28;20186;-77
2021/12/02 08:32:15;;;;;;;2.03;1.00;;;;;;;1.79;100.00;98859.09;5071835;28;20198;-76
2021/12/02 08:34:40;;;;;;;3.33;1.00;;;;;;;1.85;100.00;98862.50;5069950;28;20180;-78
2021/12/02 08:37:07;;;;;;;1.63;0.80;;;;;;;1.86;100.00;98869.50;5070953;28;20291;-76
2021/12/02 08:39:33;;;;;;;3.03;1.43;;;;;;;1.82;100.00;98875.78;5071051;28;20593;-79
2021/12/02 08:41:59;;;;;;;5.00;3.77;;;;;;;1.73;100.00;98868.34;5071162;28;20182;-76
2021/12/02 08:44:25;;;;;;;11.80;5.67;;;;;;;1.73;100.00;98872.91;5071316;28;20175;-76
2021/12/02 08:46:52;;;;;;;14.47;8.27;;;;;;;1.43;100.00;98874.16;5070760;28;20205;-75
2021/12/02 08:49:20;;;;;;;8.53;5.23;;;;;;;1.35;100.00;98869.44;5071527;28;20178;-76
2021/12/02 08:51:45;;;;;;;4.40;3.03;;;;;;;1.48;100.00;98869.53;5071153;28;20928;-77
2021/12/02 08:54:12;;;;;;;2.70;2.50;;;;;;;1.58;100.00;98881.22;5071120;28;20427;-77
2021/12/02 08:56:38;;;;;;;1.97;1.77;;;;;;;1.71;100.00;98892.06;5070523;28;20562;-78
2021/12/02 08:59:04;;;;;;;1.13;1.03;;;;;;;1.87;100.00;98902.59;5070751;28;20569;-77
2021/12/02 09:01:30;;;;;;;1.30;1.20;;;;;;;1.78;100.00;98897.91;5070764;28;20182;-78
2021/12/02 09:03:56;;;;;;;0.93;0.90;;;;;;;1.92;100.00;98918.72;5071029;28;20178;-77
2021/12/02 09:06:22;;;;;;;1.07;0.73;;;;;;;1.97;100.00;98932.88;5070653;28;20205;-78
2021/12/02 09:08:49;;;;;;;2.20;1.00;;;;;;;1.97;100.00;98932.09;5071173;28;20629;-76
2021/12/02 09:11:15;;;;;;;1.17;0.60;;;;;;;1.97;100.00;98930.19;5070812;28;20175;-77
2021/12/02 09:13:40;;;;;;;1.53;0.80;;;;;;;1.95;100.00;98932.38;5070858;28;20184;-76
2021/12/02 09:16:06;;;;;;;0.50;0.50;;;;;;;2.01;100.00;98928.50;5070777;28;20202;-77
2021/12/02 09:18:31;;;;;;;2.53;1.33;;;;;;;2.05;100.00;98934.94;5070764;28;20642;-77
2021/12/02 09:20:58;;;;;;;5.50;1.07;;;;;;;2.13;100.00;98928.06;5070784;28;20232;-77
2021/12/02 09:23:24;;;;;;;5.63;2.13;;;;;;;2.21;100.00;98932.00;5070627;28;20568;-77
2021/12/02 09:25:49;;;;;;;0.50;0.50;;;;;;;2.11;100.00;98924.88;5069911;28;20257;-76
2021/12/02 09:28:15;;;;;;;2.03;1.00;;;;;;;2.12;100.00;98929.16;5070937;28;20240;-78
2021/12/02 09:30:41;;;;;;;5.50;2.17;;;;;;;2.17;100.00;98920.19;5070700;28;20664;-77
2021/12/02 09:33:07;;;;;;;13.23;1.67;;;;;;;2.23;100.00;98922.53;5070793;28;20217;-77
2021/12/02 09:35:34;;;;;;;1.00;0.50;;;;;;;2.18;100.00;98919.94;5050533;28;20203;-76
2021/12/02 09:37:59;;;;;;;2.33;0.90;;;;;;;2.16;100.00;98919.41;5050574;28;20768;-75
2021/12/02 09:40:24;;;;;;;2.63;0.70;;;;;;;2.27;100.00;98926.22;5050499;28;20441;-76
2021/12/02 09:42:50;;;;;;;2.43;0.80;;;;;;;2.31;100.00;98931.81;5050597;28;20167;-77
2021/12/02 09:45:16;;;;;;;0.73;0.50;;;;;;;2.32;100.00;98928.06;5050543;28;20171;-78
2021/12/02 09:47:44;;;;;;;0.80;0.43;;;;;;;2.29;100.00;98940.19;5050360;28;20182;-76
2021/12/02 09:50:22;;;;;;;0.43;0.37;;;;;;;2.32;100.00;98938.84;5050542;28;20282;-76
2021/12/02 09:52:48;;;;;;;0.23;0.10;;;;;;;2.28;100.00;98927.81;5050419;28;20262;-77
2021/12/02 09:58:07;;;;;;;7.43;0.50;;;;;;;2.33;100.00;98919.69;5049083;28;20187;-76
2021/12/02 10:00:41;;;;;;;0.00;0.00;;;;;;;2.38;100.00;98919.59;5050563;28;20186;-75
2021/12/02 10:06:06;;;;;;;0.10;0.10;;;;;;;2.42;100.00;98933.25;5050451;28;20321;-76
2021/12/02 10:08:38;;;;;;;0.20;0.17;;;;;;;2.44;100.00;98944.53;5050282;28;20524;-75
2021/12/02 10:11:06;;;;;;;1.07;1.07;;;;;;;2.52;100.00;98935.00;5050636;28;20658;-75
2021/12/02 10:13:44;;;;;;;0.10;0.10;;;;;;;2.71;100.00;98934.94;5050370;28;20282;-75
2021/12/02 10:16:39;;;;;;;4.20;0.60;;;;;;;2.78;100.00;98927.28;5050276;28;20202;-76
2021/12/02 10:19:14;;;;;;;0.10;0.10;;;;;;;2.85;100.00;98938.47;5049844;28;20426;-77
2021/12/02 10:21:47;;;;;;;0.30;0.20;;;;;;;2.83;100.00;98937.97;5050002;28;20199;-76
2021/12/02 10:24:23;;;;;;;2.13;1.13;;;;;;;2.79;100.00;98942.34;5049994;28;20206;-76
2021/12/02 10:26:50;;;;;;;3.37;2.00;;;;;;;2.76;100.00;98938.38;5049981;28;20210;-78
2021/12/02 10:29:21;;;;;;;3.83;2.00;;;;;;;2.68;100.00;98942.53;5049993;28;20636;-77
2021/12/02 10:31:48;;;;;;;7.30;1.17;;;;;;;2.61;100.00;98947.50;5049948;28;20175;-76
2021/12/02 10:34:17;;;;;;;0.20;0.20;;;;;;;2.50;100.00;98959.56;5049775;28;20605;-76
2021/12/02 10:36:45;;;;;;;0.47;0.43;;;;;;;2.50;100.00;98948.78;5051355;28;20231;-76
2021/12/02 10:39:24;;;;;;;2.63;0.30;;;;;;;2.46;100.00;98950.47;5053809;28;20674;-76
2021/12/02 10:42:07;;;;;;;0.10;0.10;;;;;;;2.50;100.00;98956.84;5052152;28;20282;-76
2021/12/02 10:44:35;;;;;;;0.93;0.40;;;;;;;2.47;100.00;98925.13;5053389;28;20179;-77
2021/12/02 10:47:05;;;;;;;0.33;0.33;;;;;;;2.49;100.00;98898.66;5053288;28;20577;-77
2021/12/02 10:49:50;;;;;;;0.30;0.30;;;;;;;2.49;100.00;98930.22;5053539;28;20221;-76
2021/12/02 10:52:24;;;;;;;0.40;0.40;;;;;;;2.54;100.00;98925.50;5053330;28;20642;-76
2021/12/02 10:54:57;;;;;;;0.80;0.40;;;;;;;2.55;100.00;98908.25;5053072;28;20679;-77
2021/12/02 10:57:26;;;;;;;3.40;1.20;;;;;;;2.65;100.00;98934.25;5052276;28;20210;-77
2021/12/02 11:00:09;;;;;;;2.30;0.40;;;;;;;2.71;100.00;98922.25;5066966;28;20174;-78
2021/12/02 11:02:40;;;;;;;0.73;0.73;;;;;;;2.66;100.00;98925.06;5072833;28;20174;-78
2021/12/02 11:05:20;;;;;;;0.77;0.77;;;;;;;2.71;100.00;98932.25;5072529;28;20171;-77
2021/12/02 11:08:06;;;;;;;0.47;0.27;;;;;;;2.81;100.00;98943.66;5073111;28;20209;-78
2021/12/02 11:10:38;;;;;;;0.23;0.23;;;;;;;2.86;100.00;98943.56;5072768;28;20266;-77
2021/12/02 11:13:04;;;;;;;0.30;0.30;;;;;;;2.85;100.00;98939.25;5071548;28;20178;-77
2021/12/02 11:15:32;;;;;;;0.10;0.10;;;;;;;2.77;100.00;98944.56;5072302;28;20170;-77
2021/12/02 11:18:05;;;;;;;0.33;0.30;;;;;;;2.73;100.00;98947.03;5071351;28;20495;-77
2021/12/02 11:20:50;;;;;;;0.60;0.57;;;;;;;2.75;100.00;98947.56;5072540;28;20174;-76
2021/12/02 11:23:27;;;;;;;2.43;0.47;;;;;;;2.69;100.00;98949.50;5072492;28;20261;-78
2021/12/02 11:26:05;;;;;;;5.37;1.37;;;;;;;2.80;100.00;98950.16;5072036;28;20664;-77
2021/12/02 11:28:32;;;;;;;3.10;0.77;;;;;;;2.77;100.00;98947.25;5072585;28;20167;-77
2021/12/02 11:31:07;;;;;;;0.43;0.43;;;;;;;2.75;100.00;98950.25;5071633;28;20170;-77
2021/12/02 11:33:35;;;;;;;1.57;0.53;;;;;;;2.75;100.00;98952.94;5072007;28;20587;-77
2021/12/02 11:36:03;;;;;;;0.60;0.27;;;;;;;2.72;100.00;98961.59;5072207;28;20935;-76
2021/12/02 11:38:29;;;;;;;1.10;1.00;;;;;;;2.79;100.00;98953.94;5072367;28;20184;-77
2021/12/02 11:41:00;;;;;;;1.77;1.43;;;;;;;2.90;100.00;98955.38;5072368;28;20171;-77
2021/12/02 11:43:31;;;;;;;1.20;0.80;;;;;;;2.92;100.00;98965.84;5072311;28;20170;-77
2021/12/02 11:45:59;;;;;;;0.40;0.40;;;;;;;2.92;100.00;98972.06;5072177;28;20174;-78
2021/12/02 11:48:46;;;;;;;0.60;0.60;;;;;;;2.99;100.00;98977.84;5071452;28;20209;-78
2021/12/02 11:51:14;;;;;;;1.83;0.40;;;;;;;2.92;100.00;98922.69;5072248;28;20262;-77
2021/12/02 11:53:40;;;;;;;0.20;0.20;;;;;;;2.89;100.00;98985.31;5071955;28;20170;-75
2021/12/02 11:56:15;;;;;;;0.10;0.10;;;;;;;3.04;100.00;98978.84;5070560;28;20213;-77
2021/12/02 11:58:41;;;;;;;0.30;0.30;;;;;;;3.15;100.00;98981.06;5072052;28;20679;-76
2021/12/02 12:01:12;;;;;;;0.37;0.37;;;;;;;3.21;100.00;98981.78;5071978;28;20170;-77
2021/12/02 12:03:44;;;;;;;0.00;0.00;;;;;;;3.21;100.00;98981.78;5072183;28;20257;-78